sensor_id;sensor_type;location;lat;lon;timestamp;P1;durP1;ratioP1;P2;durP2;ratioP2
19043;SDS011;9654;52.302;8.120;2023-05-24T00:01:41;27.50;;;5.20;;
19043;SDS011;9654;52.302;8.120;2023-05-24T00:04:08;15.37;;;4.17;;
19043;SDS011;9654;52.302;8.120;2023-05-24T00:06:36;23.50;;;4.30;;
19043;SDS011;9654;52.302;8.120;2023-05-24T00:09:02;23.93;;;4.27;;
19043;SDS011;9654;52.302;8.120;2023-05-24T00:11:31;21.40;;;4.23;;
19043;SDS011;9654;52.302;8.120;2023-05-24T00:13:58;22.40;;;4.47;;
19043;SDS011;9654;52.302;8.120;2023-05-24T00:16:25;17.93;;;4.10;;
19043;SDS011;9654;52.302;8.120;2023-05-24T00:18:51;18.10;;;4.40;;
19043;SDS011;9654;52.302;8.120;2023-05-24T00:21:18;20.70;;;4.10;;
19043;SDS011;9654;52.302;8.120;2023-05-24T00:23:46;20.87;;;3.43;;
19043;SDS011;9654;52.302;8.120;2023-05-24T00:26:12;28.50;;;4.73;;
19043;SDS011;9654;52.302;8.120;2023-05-24T00:28:40;21.40;;;3.40;;
19043;SDS011;9654;52.302;8.120;2023-05-24T00:31:07;13.20;;;3.43;;
19043;SDS011;9654;52.302;8.120;2023-05-24T00:33:34;20.33;;;4.73;;
19043;SDS011;9654;52.302;8.120;2023-05-24T00:36:01;25.63;;;5.70;;
19043;SDS011;9654;52.302;8.120;2023-05-24T00:38:28;23.67;;;5.40;;
19043;SDS011;9654;52.302;8.120;2023-05-24T00:40:55;20.27;;;6.00;;
19043;SDS011;9654;52.302;8.120;2023-05-24T00:43:25;18.40;;;5.00;;
19043;SDS011;9654;52.302;8.120;2023-05-24T00:45:58;30.40;;;4.93;;
19043;SDS011;9654;52.302;8.120;2023-05-24T00:48:40;16.30;;;4.07;;
19043;SDS011;9654;52.302;8.120;2023-05-24T00:51:07;28.63;;;3.90;;
19043;SDS011;9654;52.302;8.120;2023-05-24T00:53:35;18.10;;;5.50;;
19043;SDS011;9654;52.302;8.120;2023-05-24T00:56:02;19.83;;;4.73;;
19043;SDS011;9654;52.302;8.120;2023-05-24T00:58:30;15.13;;;3.60;;
19043;SDS011;9654;52.302;8.120;2023-05-24T01:00:59;31.33;;;5.03;;
19043;SDS011;9654;52.302;8.120;2023-05-24T01:03:27;18.70;;;4.47;;
19043;SDS011;9654;52.302;8.120;2023-05-24T01:05:55;16.60;;;4.40;;
19043;SDS011;9654;52.302;8.120;2023-05-24T01:08:26;25.63;;;5.07;;
19043;SDS011;9654;52.302;8.120;2023-05-24T01:11:08;20.63;;;4.03;;
19043;SDS011;9654;52.302;8.120;2023-05-24T01:13:42;20.83;;;4.50;;
19043;SDS011;9654;52.302;8.120;2023-05-24T01:16:15;16.70;;;4.17;;
19043;SDS011;9654;52.302;8.120;2023-05-24T01:18:48;16.93;;;4.03;;
19043;SDS011;9654;52.302;8.120;2023-05-24T01:21:24;14.77;;;;;
19043;SDS011;9654;52.302;8.120;2023-05-24T01:24:04;16.87;;;4.40;;
19043;SDS011;9654;52.302;8.120;2023-05-24T01:26:47;16.60;;;4.60;;
19043;SDS011;9654;52.302;8.120;2023-05-24T01:29:28;16.33;;;3.93;;
19043;SDS011;9654;52.302;8.120;2023-05-24T01:31:56;15.30;;;3.90;;
19043;SDS011;9654;52.302;8.120;2023-05-24T01:34:24;14.57;;;4.43;;
19043;SDS011;9654;52.302;8.120;2023-05-24T01:36:50;19.77;;;4.80;;
19043;SDS011;9654;52.302;8.120;2023-05-24T01:39:17;21.53;;;6.50;;
19043;SDS011;9654;52.302;8.120;2023-05-24T01:41:46;15.03;;;4.43;;
19043;SDS011;9654;52.302;8.120;2023-05-24T01:44:22;16.07;;;4.63;;
19043;SDS011;9654;52.302;8.120;2023-05-24T01:46:56;14.30;;;4.50;;
19043;SDS011;9654;52.302;8.120;2023-05-24T01:49:29;19.47;;;4.70;;
19043;SDS011;9654;52.302;8.120;2023-05-24T01:52:00;15.97;;;4.27;;
19043;SDS011;9654;52.302;8.120;2023-05-24T01:54:30;14.47;;;3.40;;
19043;SDS011;9654;52.302;8.120;2023-05-24T01:57:03;17.93;;;4.07;;
19043;SDS011;9654;52.302;8.120;2023-05-24T01:59:34;18.97;;;4.67;;
19043;SDS011;9654;52.302;8.120;2023-05-24T02:02:01;29.53;;;4.67;;
19043;SDS011;9654;52.302;8.120;2023-05-24T02:04:28;20.13;;;5.20;;
19043;SDS011;9654;52.302;8.120;2023-05-24T02:06:55;15.80;;;3.67;;
19043;SDS011;9654;52.302;8.120;2023-05-24T02:09:22;15.97;;;4.23;;
19043;SDS011;9654;52.302;8.120;2023-05-24T02:11:49;17.13;;;4.67;;
19043;SDS011;9654;52.302;8.120;2023-05-24T02:14:16;15.77;;;4.07;;
19043;SDS011;9654;52.302;8.120;2023-05-24T02:16:45;19.77;;;5.30;;
19043;SDS011;9654;52.302;8.120;2023-05-24T02:19:11;21.63;;;4.93;;
19043;SDS011;9654;52.302;8.120;2023-05-24T02:21:38;20.10;;;5.00;;
19043;SDS011;9654;52.302;8.120;2023-05-24T02:24:06;25.90;;;5.80;;
19043;SDS011;9654;52.302;8.120;2023-05-24T02:26:35;19.17;;;4.80;;
19043;SDS011;9654;52.302;8.120;2023-05-24T02:29:02;26.23;;;5.87;;
19043;SDS011;9654;52.302;8.120;2023-05-24T02:31:29;20.53;;;5.67;;
19043;SDS011;9654;52.302;8.120;2023-05-24T02:33:57;29.80;;;6.30;;
19043;SDS011;9654;52.302;8.120;2023-05-24T02:36:24;23.70;;;5.53;;
19043;SDS011;9654;52.302;8.120;2023-05-24T02:38:51;33.20;;;8.10;;
19043;SDS011;9654;52.302;8.120;2023-05-24T02:41:18;24.63;;;5.90;;
19043;SDS011;9654;52.302;8.120;2023-05-24T02:43:46;19.00;;;5.50;;
19043;SDS011;9654;52.302;8.120;2023-05-24T02:46:13;25.90;;;5.70;;
19043;SDS011;9654;52.302;8.120;2023-05-24T02:48:40;18.87;;;6.20;;
19043;SDS011;9654;52.302;8.120;2023-05-24T02:51:08;29.00;;;6.27;;
19043;SDS011;9654;52.302;8.120;2023-05-24T02:53:35;28.67;;;6.03;;
19043;SDS011;9654;52.302;8.120;2023-05-24T02:56:02;24.20;;;5.50;;
19043;SDS011;9654;52.302;8.120;2023-05-24T02:58:29;33.27;;;6.03;;
19043;SDS011;9654;52.302;8.120;2023-05-24T03:00:55;26.53;;;6.10;;
19043;SDS011;9654;52.302;8.120;2023-05-24T03:03:22;35.20;;;6.97;;
19043;SDS011;9654;52.302;8.120;2023-05-24T03:05:49;26.60;;;6.47;;
19043;SDS011;9654;52.302;8.120;2023-05-24T03:08:17;33.10;;;6.67;;
19043;SDS011;9654;52.302;8.120;2023-05-24T03:10:44;31.47;;;6.07;;
19043;SDS011;9654;52.302;8.120;2023-05-24T03:13:11;25.63;;;6.37;;
19043;SDS011;9654;52.302;8.120;2023-05-24T03:15:38;21.97;;;5.77;;
19043;SDS011;9654;52.302;8.120;2023-05-24T03:18:05;22.80;;;7.03;;
19043;SDS011;9654;52.302;8.120;2023-05-24T03:20:31;26.67;;;5.80;;
19043;SDS011;9654;52.302;8.120;2023-05-24T03:22:58;31.93;;;6.47;;
19043;SDS011;9654;52.302;8.120;2023-05-24T03:25:26;22.57;;;5.77;;
19043;SDS011;9654;52.302;8.120;2023-05-24T03:27:53;23.90;;;6.10;;
19043;SDS011;9654;52.302;8.120;2023-05-24T03:30:20;27.50;;;6.57;;
19043;SDS011;9654;52.302;8.120;2023-05-24T03:32:47;28.63;;;6.20;;
19043;SDS011;9654;52.302;8.120;2023-05-24T03:35:14;32.47;;;6.70;;
19043;SDS011;9654;52.302;8.120;2023-05-24T03:37:40;26.00;;;6.20;;
19043;SDS011;9654;52.302;8.120;2023-05-24T03:40:07;30.87;;;7.07;;
19043;SDS011;9654;52.302;8.120;2023-05-24T03:42:36;27.97;;;5.60;;
19043;SDS011;9654;52.302;8.120;2023-05-24T03:45:03;25.07;;;6.73;;
19043;SDS011;9654;52.302;8.120;2023-05-24T03:47:31;28.37;;;7.00;;
19043;SDS011;9654;52.302;8.120;2023-05-24T03:49:58;32.47;;;6.23;;
19043;SDS011;9654;52.302;8.120;2023-05-24T03:52:24;31.97;;;6.90;;
19043;SDS011;9654;52.302;8.120;2023-05-24T03:54:51;30.87;;;6.93;;
19043;SDS011;9654;52.302;8.120;2023-05-24T03:57:18;36.77;;;7.70;;
19043;SDS011;9654;52.302;8.120;2023-05-24T03:59:46;28.93;;;6.83;;
19043;SDS011;9654;52.302;8.120;2023-05-24T04:02:13;39.33;;;7.30;;
19043;SDS011;9654;52.302;8.120;2023-05-24T04:04:39;32.03;;;7.33;;
19043;SDS011;9654;52.302;8.120;2023-05-24T04:07:06;28.53;;;6.80;;
19043;SDS011;9654;52.302;8.120;2023-05-24T04:09:35;34.83;;;6.90;;
19043;SDS011;9654;52.302;8.120;2023-05-24T04:12:02;34.50;;;7.00;;
19043;SDS011;9654;52.302;8.120;2023-05-24T04:14:29;31.80;;;7.63;;
19043;SDS011;9654;52.302;8.120;2023-05-24T04:16:58;26.90;;;6.90;;
19043;SDS011;9654;52.302;8.120;2023-05-24T04:19:26;23.50;;;6.73;;
19043;SDS011;9654;52.302;8.120;2023-05-24T04:21:52;29.10;;;8.33;;
19043;SDS011;9654;52.302;8.120;2023-05-24T04:24:19;40.53;;;7.37;;
19043;SDS011;9654;52.302;8.120;2023-05-24T04:26:46;23.63;;;6.30;;
19043;SDS011;9654;52.302;8.120;2023-05-24T04:29:13;38.87;;;8.40;;
19043;SDS011;9654;52.302;8.120;2023-05-24T04:31:39;32.73;;;7.90;;
19043;SDS011;9654;52.302;8.120;2023-05-24T04:34:10;27.77;;;6.43;;
19043;SDS011;9654;52.302;8.120;2023-05-24T04:36:38;31.80;;;7.77;;
19043;SDS011;9654;52.302;8.120;2023-05-24T04:39:05;26.93;;;6.40;;
19043;SDS011;9654;52.302;8.120;2023-05-24T04:41:32;27.03;;;6.77;;
19043;SDS011;9654;52.302;8.120;2023-05-24T04:44:00;30.17;;;7.43;;
19043;SDS011;9654;52.302;8.120;2023-05-24T04:46:26;30.50;;;6.83;;
19043;SDS011;9654;52.302;8.120;2023-05-24T04:48:53;29.30;;;7.00;;
19043;SDS011;9654;52.302;8.120;2023-05-24T04:51:22;36.57;;;6.83;;
19043;SDS011;9654;52.302;8.120;2023-05-24T04:53:49;39.63;;;7.13;;
19043;SDS011;9654;52.302;8.120;2023-05-24T04:56:15;28.17;;;7.37;;
19043;SDS011;9654;52.302;8.120;2023-05-24T04:58:43;34.80;;;6.90;;
19043;SDS011;9654;52.302;8.120;2023-05-24T05:01:10;39.47;;;7.30;;
19043;SDS011;9654;52.302;8.120;2023-05-24T05:03:37;34.17;;;6.53;;
19043;SDS011;9654;52.302;8.120;2023-05-24T05:06:04;34.30;;;7.17;;
19043;SDS011;9654;52.302;8.120;2023-05-24T05:08:32;30.87;;;7.53;;
19043;SDS011;9654;52.302;8.120;2023-05-24T05:11:00;19.07;;;6.03;;
19043;SDS011;9654;52.302;8.120;2023-05-24T05:13:32;22.60;;;6.97;;
19043;SDS011;9654;52.302;8.120;2023-05-24T05:15:59;26.57;;;6.67;;
19043;SDS011;9654;52.302;8.120;2023-05-24T05:18:27;29.07;;;7.40;;
19043;SDS011;9654;52.302;8.120;2023-05-24T05:20:54;29.13;;;6.67;;
19043;SDS011;9654;52.302;8.120;2023-05-24T05:23:21;28.97;;;6.57;;
19043;SDS011;9654;52.302;8.120;2023-05-24T05:25:49;31.03;;;7.10;;
19043;SDS011;9654;52.302;8.120;2023-05-24T05:28:16;33.87;;;7.83;;
19043;SDS011;9654;52.302;8.120;2023-05-24T05:30:42;27.03;;;5.83;;
19043;SDS011;9654;52.302;8.120;2023-05-24T05:33:09;34.60;;;7.53;;
19043;SDS011;9654;52.302;8.120;2023-05-24T05:35:36;30.03;;;6.43;;
19043;SDS011;9654;52.302;8.120;2023-05-24T05:38:03;26.20;;;6.27;;
19043;SDS011;9654;52.302;8.120;2023-05-24T05:40:30;24.90;;;5.53;;
19043;SDS011;9654;52.302;8.120;2023-05-24T05:42:58;36.60;;;7.67;;
19043;SDS011;9654;52.302;8.120;2023-05-24T05:45:25;33.93;;;7.33;;
19043;SDS011;9654;52.302;8.120;2023-05-24T05:47:51;26.53;;;7.13;;
19043;SDS011;9654;52.302;8.120;2023-05-24T05:50:18;29.00;;;7.83;;
19043;SDS011;9654;52.302;8.120;2023-05-24T05:52:45;25.87;;;5.90;;
19043;SDS011;9654;52.302;8.120;2023-05-24T05:55:12;33.57;;;7.10;;
19043;SDS011;9654;52.302;8.120;2023-05-24T05:57:39;29.90;;;6.80;;
19043;SDS011;9654;52.302;8.120;2023-05-24T06:00:08;31.67;;;6.30;;
19043;SDS011;9654;52.302;8.120;2023-05-24T06:02:35;31.33;;;6.20;;
19043;SDS011;9654;52.302;8.120;2023-05-24T06:05:02;28.47;;;6.20;;
19043;SDS011;9654;52.302;8.120;2023-05-24T06:07:30;27.03;;;6.93;;
19043;SDS011;9654;52.302;8.120;2023-05-24T06:09:56;27.57;;;6.50;;
19043;SDS011;9654;52.302;8.120;2023-05-24T06:12:23;31.50;;;8.17;;
19043;SDS011;9654;52.302;8.120;2023-05-24T06:14:50;33.67;;;7.40;;
19043;SDS011;9654;52.302;8.120;2023-05-24T06:17:18;27.17;;;6.47;;
19043;SDS011;9654;52.302;8.120;2023-05-24T06:19:48;19.47;;;6.10;;
19043;SDS011;9654;52.302;8.120;2023-05-24T06:22:17;30.17;;;6.13;;
19043;SDS011;9654;52.302;8.120;2023-05-24T06:24:45;24.23;;;6.63;;
19043;SDS011;9654;52.302;8.120;2023-05-24T06:27:13;31.20;;;6.23;;
19043;SDS011;9654;52.302;8.120;2023-05-24T06:29:40;28.17;;;7.47;;
19043;SDS011;9654;52.302;8.120;2023-05-24T06:32:06;24.00;;;6.37;;
19043;SDS011;9654;52.302;8.120;2023-05-24T06:34:35;24.87;;;5.67;;
19043;SDS011;9654;52.302;8.120;2023-05-24T06:37:02;27.10;;;6.93;;
19043;SDS011;9654;52.302;8.120;2023-05-24T06:39:29;22.90;;;5.93;;
19043;SDS011;9654;52.302;8.120;2023-05-24T06:41:56;24.07;;;6.30;;
19043;SDS011;9654;52.302;8.120;2023-05-24T06:44:22;23.93;;;6.93;;
19043;SDS011;9654;52.302;8.120;2023-05-24T06:46:55;25.77;;;5.27;;
19043;SDS011;9654;52.302;8.120;2023-05-24T06:49:22;21.10;;;6.00;;
19043;SDS011;9654;52.302;8.120;2023-05-24T06:51:50;28.50;;;7.13;;
19043;SDS011;9654;52.302;8.120;2023-05-24T06:54:17;29.40;;;5.90;;
19043;SDS011;9654;52.302;8.120;2023-05-24T06:56:44;26.73;;;5.87;;
19043;SDS011;9654;52.302;8.120;2023-05-24T06:59:11;28.20;;;6.83;;
19043;SDS011;9654;52.302;8.120;2023-05-24T07:01:38;30.03;;;6.00;;
19043;SDS011;9654;52.302;8.120;2023-05-24T07:04:06;21.83;;;5.07;;
19043;SDS011;9654;52.302;8.120;2023-05-24T07:06:33;24.60;;;6.43;;
19043;SDS011;9654;52.302;8.120;2023-05-24T07:09:02;24.37;;;7.23;;
19043;SDS011;9654;52.302;8.120;2023-05-24T07:11:30;26.60;;;5.97;;
19043;SDS011;9654;52.302;8.120;2023-05-24T07:13:57;17.43;;;5.20;;
19043;SDS011;9654;52.302;8.120;2023-05-24T07:16:24;33.03;;;5.93;;
19043;SDS011;9654;52.302;8.120;2023-05-24T07:18:51;26.87;;;5.97;;
19043;SDS011;9654;52.302;8.120;2023-05-24T07:21:18;28.57;;;5.43;;
19043;SDS011;9654;52.302;8.120;2023-05-24T07:23:45;25.83;;;5.27;;
19043;SDS011;9654;52.302;8.120;2023-05-24T07:26:13;25.67;;;6.40;;
19043;SDS011;9654;52.302;8.120;2023-05-24T07:28:40;26.50;;;6.17;;
19043;SDS011;9654;52.302;8.120;2023-05-24T07:31:07;20.33;;;5.13;;
19043;SDS011;9654;52.302;8.120;2023-05-24T07:33:34;30.73;;;7.13;;
19043;SDS011;9654;52.302;8.120;2023-05-24T07:36:01;22.77;;;5.13;;
19043;SDS011;9654;52.302;8.120;2023-05-24T07:38:29;30.73;;;5.23;;
19043;SDS011;9654;52.302;8.120;2023-05-24T07:40:57;28.57;;;5.97;;
19043;SDS011;9654;52.302;8.120;2023-05-24T07:43:26;22.93;;;5.87;;
19043;SDS011;9654;52.302;8.120;2023-05-24T07:45:53;22.13;;;5.03;;
19043;SDS011;9654;52.302;8.120;2023-05-24T07:48:20;29.87;;;5.93;;
19043;SDS011;9654;52.302;8.120;2023-05-24T07:50:47;21.30;;;5.13;;
19043;SDS011;9654;52.302;8.120;2023-05-24T07:53:16;21.00;;;4.70;;
19043;SDS011;9654;52.302;8.120;2023-05-24T07:55:43;20.03;;;5.13;;
19043;SDS011;9654;52.302;8.120;2023-05-24T07:58:10;28.90;;;6.47;;
19043;SDS011;9654;52.302;8.120;2023-05-24T08:00:38;24.53;;;5.10;;
19043;SDS011;9654;52.302;8.120;2023-05-24T08:03:05;28.33;;;7.13;;
19043;SDS011;9654;52.302;8.120;2023-05-24T08:05:32;27.83;;;4.97;;
19043;SDS011;9654;52.302;8.120;2023-05-24T08:07:59;18.53;;;4.87;;
19043;SDS011;9654;52.302;8.120;2023-05-24T08:10:26;25.10;;;5.40;;
19043;SDS011;9654;52.302;8.120;2023-05-24T08:12:53;23.13;;;5.27;;
19043;SDS011;9654;52.302;8.120;2023-05-24T08:15:20;37.30;;;6.13;;
19043;SDS011;9654;52.302;8.120;2023-05-24T08:17:49;25.43;;;5.80;;
19043;SDS011;9654;52.302;8.120;2023-05-24T08:20:15;20.57;;;4.40;;
19043;SDS011;9654;52.302;8.120;2023-05-24T08:22:42;22.13;;;4.40;;
19043;SDS011;9654;52.302;8.120;2023-05-24T08:25:09;17.37;;;4.53;;
19043;SDS011;9654;52.302;8.120;2023-05-24T08:27:36;29.53;;;4.90;;
19043;SDS011;9654;52.302;8.120;2023-05-24T08:30:03;16.90;;;4.47;;
19043;SDS011;9654;52.302;8.120;2023-05-24T08:32:31;19.83;;;6.03;;
19043;SDS011;9654;52.302;8.120;2023-05-24T08:34:59;24.20;;;5.77;;
19043;SDS011;9654;52.302;8.120;2023-05-24T08:37:27;21.97;;;6.40;;
19043;SDS011;9654;52.302;8.120;2023-05-24T08:39:55;17.23;;;4.80;;
19043;SDS011;9654;52.302;8.120;2023-05-24T08:42:22;17.70;;;4.30;;
19043;SDS011;9654;52.302;8.120;2023-05-24T08:44:51;27.13;;;4.70;;
19043;SDS011;9654;52.302;8.120;2023-05-24T08:47:23;21.17;;;5.20;;
19043;SDS011;9654;52.302;8.120;2023-05-24T08:49:51;16.60;;;4.73;;
19043;SDS011;9654;52.302;8.120;2023-05-24T08:52:21;17.87;;;4.60;;
19043;SDS011;9654;52.302;8.120;2023-05-24T08:54:49;22.43;;;5.07;;
19043;SDS011;9654;52.302;8.120;2023-05-24T08:57:16;27.57;;;5.07;;
19043;SDS011;9654;52.302;8.120;2023-05-24T08:59:44;23.63;;;4.50;;
19043;SDS011;9654;52.302;8.120;2023-05-24T09:02:12;24.10;;;5.57;;
19043;SDS011;9654;52.302;8.120;2023-05-24T09:04:40;27.67;;;5.40;;
19043;SDS011;9654;52.302;8.120;2023-05-24T09:07:08;18.90;;;4.50;;
19043;SDS011;9654;52.302;8.120;2023-05-24T09:09:39;25.43;;;5.00;;
19043;SDS011;9654;52.302;8.120;2023-05-24T09:12:12;21.10;;;4.87;;
19043;SDS011;9654;52.302;8.120;2023-05-24T09:14:41;28.67;;;6.23;;
19043;SDS011;9654;52.302;8.120;2023-05-24T09:17:11;27.03;;;6.90;;
19043;SDS011;9654;52.302;8.120;2023-05-24T09:19:41;23.83;;;5.70;;
19043;SDS011;9654;52.302;8.120;2023-05-24T09:22:09;23.13;;;6.10;;
19043;SDS011;9654;52.302;8.120;2023-05-24T09:24:42;19.97;;;5.43;;
19043;SDS011;9654;52.302;8.120;2023-05-24T09:27:13;20.60;;;5.13;;
19043;SDS011;9654;52.302;8.120;2023-05-24T09:29:41;19.77;;;5.37;;
19043;SDS011;9654;52.302;8.120;2023-05-24T09:32:10;19.47;;;5.33;;
19043;SDS011;9654;52.302;8.120;2023-05-24T09:34:38;31.83;;;6.27;;
19043;SDS011;9654;52.302;8.120;2023-05-24T09:37:05;23.10;;;5.40;;
19043;SDS011;9654;52.302;8.120;2023-05-24T09:39:37;23.57;;;6.97;;
19043;SDS011;9654;52.302;8.120;2023-05-24T09:42:07;22.93;;;5.00;;
19043;SDS011;9654;52.302;8.120;2023-05-24T09:44:34;30.90;;;5.50;;
19043;SDS011;9654;52.302;8.120;2023-05-24T09:47:01;24.33;;;5.00;;
19043;SDS011;9654;52.302;8.120;2023-05-24T09:49:29;29.10;;;5.87;;
19043;SDS011;9654;52.302;8.120;2023-05-24T09:51:56;21.40;;;4.33;;
19043;SDS011;9654;52.302;8.120;2023-05-24T09:54:23;22.93;;;6.23;;
19043;SDS011;9654;52.302;8.120;2023-05-24T09:56:51;17.67;;;4.33;;
19043;SDS011;9654;52.302;8.120;2023-05-24T09:59:19;16.60;;;4.87;;
19043;SDS011;9654;52.302;8.120;2023-05-24T10:01:46;28.13;;;5.43;;
19043;SDS011;9654;52.302;8.120;2023-05-24T10:04:17;17.23;;;6.20;;
19043;SDS011;9654;52.302;8.120;2023-05-24T10:06:44;22.37;;;4.83;;
19043;SDS011;9654;52.302;8.120;2023-05-24T10:09:12;21.93;;;5.07;;
19043;SDS011;9654;52.302;8.120;2023-05-24T10:11:39;21.67;;;6.03;;
19043;SDS011;9654;52.302;8.120;2023-05-24T10:14:08;23.40;;;5.40;;
19043;SDS011;9654;52.302;8.120;2023-05-24T10:16:36;27.73;;;6.43;;
19043;SDS011;9654;52.302;8.120;2023-05-24T10:19:03;19.97;;;5.67;;
19043;SDS011;9654;52.302;8.120;2023-05-24T10:21:31;20.90;;;5.37;;
19043;SDS011;9654;52.302;8.120;2023-05-24T10:24:01;20.43;;;5.27;;
19043;SDS011;9654;52.302;8.120;2023-05-24T10:26:30;21.57;;;5.00;;
19043;SDS011;9654;52.302;8.120;2023-05-24T10:29:00;27.73;;;7.20;;
19043;SDS011;9654;52.302;8.120;2023-05-24T10:31:31;28.27;;;6.50;;
19043;SDS011;9654;52.302;8.120;2023-05-24T10:34:03;23.73;;;5.20;;
19043;SDS011;9654;52.302;8.120;2023-05-24T10:36:31;20.20;;;5.33;;
19043;SDS011;9654;52.302;8.120;2023-05-24T10:38:59;22.57;;;5.73;;
19043;SDS011;9654;52.302;8.120;2023-05-24T10:41:27;21.03;;;4.90;;
19043;SDS011;9654;52.302;8.120;2023-05-24T10:43:54;17.97;;;5.27;;
19043;SDS011;9654;52.302;8.120;2023-05-24T10:46:22;22.53;;;4.90;;
19043;SDS011;9654;52.302;8.120;2023-05-24T10:48:59;17.27;;;6.30;;
19043;SDS011;9654;52.302;8.120;2023-05-24T10:51:31;23.23;;;4.87;;
19043;SDS011;9654;52.302;8.120;2023-05-24T10:54:12;21.50;;;4.83;;
19043;SDS011;9654;52.302;8.120;2023-05-24T10:56:41;19.90;;;4.90;;
19043;SDS011;9654;52.302;8.120;2023-05-24T10:59:20;18.70;;;5.40;;
19043;SDS011;9654;52.302;8.120;2023-05-24T11:02:01;17.33;;;5.00;;
19043;SDS011;9654;52.302;8.120;2023-05-24T11:04:30;18.33;;;4.93;;
19043;SDS011;9654;52.302;8.120;2023-05-24T11:07:01;16.03;;;4.00;;
19043;SDS011;9654;52.302;8.120;2023-05-24T11:09:29;22.83;;;5.00;;
19043;SDS011;9654;52.302;8.120;2023-05-24T11:11:59;14.83;;;4.20;;
19043;SDS011;9654;52.302;8.120;2023-05-24T11:14:29;24.13;;;4.73;;
19043;SDS011;9654;52.302;8.120;2023-05-24T11:16:56;18.00;;;4.30;;
19043;SDS011;9654;52.302;8.120;2023-05-24T11:19:28;19.27;;;5.70;;
19043;SDS011;9654;52.302;8.120;2023-05-24T11:21:57;24.53;;;4.67;;
19043;SDS011;9654;52.302;8.120;2023-05-24T11:24:27;19.53;;;4.50;;
19043;SDS011;9654;52.302;8.120;2023-05-24T11:26:54;20.77;;;4.47;;
19043;SDS011;9654;52.302;8.120;2023-05-24T11:29:22;26.50;;;5.07;;
19043;SDS011;9654;52.302;8.120;2023-05-24T11:31:49;14.13;;;4.13;;
19043;SDS011;9654;52.302;8.120;2023-05-24T11:34:17;21.97;;;5.17;;
19043;SDS011;9654;52.302;8.120;2023-05-24T11:36:44;33.23;;;5.70;;
19043;SDS011;9654;52.302;8.120;2023-05-24T11:39:11;23.40;;;4.50;;
19043;SDS011;9654;52.302;8.120;2023-05-24T11:41:40;21.60;;;4.97;;
19043;SDS011;9654;52.302;8.120;2023-05-24T11:44:08;21.43;;;5.70;;
19043;SDS011;9654;52.302;8.120;2023-05-24T11:46:37;17.53;;;4.70;;
19043;SDS011;9654;52.302;8.120;2023-05-24T11:49:04;22.13;;;5.10;;
19043;SDS011;9654;52.302;8.120;2023-05-24T11:51:32;19.60;;;4.43;;
19043;SDS011;9654;52.302;8.120;2023-05-24T11:54:00;18.97;;;4.70;;
19043;SDS011;9654;52.302;8.120;2023-05-24T11:56:27;18.47;;;5.03;;
19043;SDS011;9654;52.302;8.120;2023-05-24T11:59:02;16.17;;;4.80;;
19043;SDS011;9654;52.302;8.120;2023-05-24T12:01:34;26.30;;;5.00;;
19043;SDS011;9654;52.302;8.120;2023-05-24T12:04:02;17.67;;;3.83;;
19043;SDS011;9654;52.302;8.120;2023-05-24T12:06:34;15.83;;;4.07;;
19043;SDS011;9654;52.302;8.120;2023-05-24T12:09:03;22.70;;;4.70;;
19043;SDS011;9654;52.302;8.120;2023-05-24T12:11:33;21.50;;;6.00;;
19043;SDS011;9654;52.302;8.120;2023-05-24T12:14:04;18.27;;;5.10;;
19043;SDS011;9654;52.302;8.120;2023-05-24T12:16:31;29.20;;;5.40;;
19043;SDS011;9654;52.302;8.120;2023-05-24T12:18:59;18.83;;;4.33;;
19043;SDS011;9654;52.302;8.120;2023-05-24T12:21:29;14.93;;;4.33;;
19043;SDS011;9654;52.302;8.120;2023-05-24T12:24:03;20.93;;;4.50;;
19043;SDS011;9654;52.302;8.120;2023-05-24T12:26:34;21.33;;;6.13;;
19043;SDS011;9654;52.302;8.120;2023-05-24T12:29:01;12.57;;;4.30;;
19043;SDS011;9654;52.302;8.120;2023-05-24T12:31:30;19.47;;;5.33;;
19043;SDS011;9654;52.302;8.120;2023-05-24T12:33:57;15.77;;;4.07;;
19043;SDS011;9654;52.302;8.120;2023-05-24T12:36:24;15.93;;;4.23;;
19043;SDS011;9654;52.302;8.120;2023-05-24T12:38:55;12.43;;;4.43;;
19043;SDS011;9654;52.302;8.120;2023-05-24T12:41:23;16.00;;;5.47;;
19043;SDS011;9654;52.302;8.120;2023-05-24T12:43:50;19.53;;;4.70;;
19043;SDS011;9654;52.302;8.120;2023-05-24T12:46:17;12.93;;;4.30;;
19043;SDS011;9654;52.302;8.120;2023-05-24T12:48:45;20.50;;;4.70;;
19043;SDS011;9654;52.302;8.120;2023-05-24T12:51:12;17.70;;;4.17;;
19043;SDS011;9654;52.302;8.120;2023-05-24T12:53:39;26.13;;;5.53;;
19043;SDS011;9654;52.302;8.120;2023-05-24T12:56:07;18.13;;;4.97;;
19043;SDS011;9654;52.302;8.120;2023-05-24T12:58:34;20.07;;;4.13;;
19043;SDS011;9654;52.302;8.120;2023-05-24T13:01:00;17.07;;;4.27;;
19043;SDS011;9654;52.302;8.120;2023-05-24T13:03:27;20.97;;;5.37;;
19043;SDS011;9654;52.302;8.120;2023-05-24T13:05:56;27.77;;;5.83;;
19043;SDS011;9654;52.302;8.120;2023-05-24T13:08:23;18.43;;;4.40;;
19043;SDS011;9654;52.302;8.120;2023-05-24T13:10:52;22.03;;;4.30;;
19043;SDS011;9654;52.302;8.120;2023-05-24T13:13:19;16.87;;;3.83;;
19043;SDS011;9654;52.302;8.120;2023-05-24T13:15:48;14.57;;;4.63;;
19043;SDS011;9654;52.302;8.120;2023-05-24T13:18:15;19.57;;;5.40;;
19043;SDS011;9654;52.302;8.120;2023-05-24T13:20:42;24.00;;;4.17;;
19043;SDS011;9654;52.302;8.120;2023-05-24T13:23:10;19.23;;;4.50;;
19043;SDS011;9654;52.302;8.120;2023-05-24T13:25:37;18.13;;;4.60;;
19043;SDS011;9654;52.302;8.120;2023-05-24T13:28:03;20.40;;;4.50;;
19043;SDS011;9654;52.302;8.120;2023-05-24T13:30:31;18.30;;;4.80;;
19043;SDS011;9654;52.302;8.120;2023-05-24T13:32:57;20.20;;;4.27;;
19043;SDS011;9654;52.302;8.120;2023-05-24T13:35:24;17.63;;;4.83;;
19043;SDS011;9654;52.302;8.120;2023-05-24T13:37:51;16.37;;;4.53;;
19043;SDS011;9654;52.302;8.120;2023-05-24T13:40:21;21.17;;;4.07;;
19043;SDS011;9654;52.302;8.120;2023-05-24T13:42:49;11.93;;;4.20;;
19043;SDS011;9654;52.302;8.120;2023-05-24T13:45:16;15.43;;;4.43;;
19043;SDS011;9654;52.302;8.120;2023-05-24T13:47:42;18.70;;;4.33;;
19043;SDS011;9654;52.302;8.120;2023-05-24T13:50:09;17.73;;;4.23;;
19043;SDS011;9654;52.302;8.120;2023-05-24T13:52:36;17.23;;;3.73;;
19043;SDS011;9654;52.302;8.120;2023-05-24T13:55:03;17.83;;;4.63;;
19043;SDS011;9654;52.302;8.120;2023-05-24T13:57:32;16.23;;;3.97;;
19043;SDS011;9654;52.302;8.120;2023-05-24T13:59:59;21.33;;;4.50;;
19043;SDS011;9654;52.302;8.120;2023-05-24T14:02:26;10.97;;;3.53;;
19043;SDS011;9654;52.302;8.120;2023-05-24T14:04:54;16.77;;;4.37;;
19043;SDS011;9654;52.302;8.120;2023-05-24T14:07:20;18.33;;;5.10;;
19043;SDS011;9654;52.302;8.120;2023-05-24T14:09:47;22.93;;;4.77;;
19043;SDS011;9654;52.302;8.120;2023-05-24T14:12:14;14.67;;;4.40;;
19043;SDS011;9654;52.302;8.120;2023-05-24T14:14:42;15.57;;;4.47;;
19043;SDS011;9654;52.302;8.120;2023-05-24T14:17:10;15.10;;;4.60;;
19043;SDS011;9654;52.302;8.120;2023-05-24T14:19:37;14.40;;;3.87;;
19043;SDS011;9654;52.302;8.120;2023-05-24T14:22:04;17.73;;;4.23;;
19043;SDS011;9654;52.302;8.120;2023-05-24T14:24:31;21.10;;;4.63;;
19043;SDS011;9654;52.302;8.120;2023-05-24T14:26:57;12.73;;;3.87;;
19043;SDS011;9654;52.302;8.120;2023-05-24T14:29:25;12.67;;;4.03;;
19043;SDS011;9654;52.302;8.120;2023-05-24T14:31:53;15.47;;;4.30;;
19043;SDS011;9654;52.302;8.120;2023-05-24T14:34:20;15.13;;;4.57;;
19043;SDS011;9654;52.302;8.120;2023-05-24T14:36:47;14.57;;;4.63;;
19043;SDS011;9654;52.302;8.120;2023-05-24T14:39:13;18.27;;;4.27;;
19043;SDS011;9654;52.302;8.120;2023-05-24T14:41:40;16.30;;;4.00;;
19043;SDS011;9654;52.302;8.120;2023-05-24T14:44:07;15.10;;;4.03;;
19043;SDS011;9654;52.302;8.120;2023-05-24T14:46:34;12.97;;;4.10;;
19043;SDS011;9654;52.302;8.120;2023-05-24T14:49:02;17.40;;;4.30;;
19043;SDS011;9654;52.302;8.120;2023-05-24T14:51:29;18.17;;;4.33;;
19043;SDS011;9654;52.302;8.120;2023-05-24T14:53:56;13.03;;;3.67;;